Terminal Aerodrome Forecast
Issued by NWS

Home | Current Version | Previous Version | Text Only | Print | Product List | Glossary On
Versions: 1 2 3 4 5 6 7 8 9 10 11 12 13 14 15 16 17
044
FTUS43 KGRR 250530
TAFMKG
TAF
KMKG 250530Z 2506/2606 01010KT P6SM OVC120
     FM251400 36012G20KT P6SM SCT035
     FM260000 34006KT P6SM SKC=

USA.gov is the U.S. government's official web portal to all federal, state and local government web resources and services.